FAB034 SLTJ-SLAL
Flight info
| Callsign | FAB034 |
|---|---|
| Flight time | 0h 53m |
| Altitude | 19500 |
| Route | SLTJ/SLAL |
| Aircraft | B58/L-SD/L |
Departure
| Time | 2026-05-03 20:15 |
|---|---|
| Airport | Capitan Oriel Lea Plaza Airport (SLTJ) |
Arrival
| Time | 2026-05-03 21:08 |
|---|---|
| Airport | Alcantarí International Airport (SLAL) |
| Time | Latitude | Longitude | Altitude | Speed | Heading |
|---|---|---|---|---|---|
| 2026-05-03 20:15 | -21.54034 | -64.63649 | 12663 ft | 160 kts | 62° |
| 2026-05-03 20:15 | -21.53113 | -64.63238 | 12605 ft | 164 kts | 330° |
| 2026-05-03 20:15 | -21.52898 | -64.64320 | 12514 ft | 164 kts | 246° |
| 2026-05-03 20:15 | -21.53264 | -64.65462 | 12672 ft | 160 kts | 254° |
| 2026-05-03 20:16 | -21.53542 | -64.66612 | 12765 ft | 159 kts | 256° |
| 2026-05-03 20:16 | -21.53829 | -64.67750 | 12909 ft | 156 kts | 253° |
| 2026-05-03 20:16 | -21.54107 | -64.68892 | 12997 ft | 158 kts | 256° |
| 2026-05-03 20:16 | -21.54344 | -64.70020 | 13149 ft | 154 kts | 251° |
| 2026-05-03 20:17 | -21.55109 | -64.70830 | 13174 ft | 157 kts | 204° |
| 2026-05-03 20:17 | -21.56147 | -64.71239 | 13151 ft | 166 kts | 198° |
| 2026-05-03 20:17 | -21.57118 | -64.70962 | 13157 ft | 161 kts | 110° |
| 2026-05-03 20:17 | -21.57002 | -64.69817 | 13262 ft | 158 kts | 60° |
| 2026-05-03 20:18 | -21.56121 | -64.69578 | 13394 ft | 149 kts | 315° |
| 2026-05-03 20:18 | -21.55538 | -64.70566 | 13237 ft | 164 kts | 300° |
| 2026-05-03 20:18 | -21.54847 | -64.71497 | 13407 ft | 155 kts | 335° |
| 2026-05-03 20:18 | -21.54030 | -64.71671 | 14103 ft | 110 kts | 6° |
| 2026-05-03 20:19 | -21.53149 | -64.71490 | 13919 ft | 140 kts | 6° |
| 2026-05-03 20:19 | -21.52146 | -64.71401 | 13969 ft | 146 kts | 346° |
| 2026-05-03 20:19 | -21.51164 | -64.71648 | 14110 ft | 145 kts | 343° |
| 2026-05-03 20:19 | -21.50200 | -64.71967 | 14204 ft | 148 kts | 349° |
| 2026-05-03 20:20 | -21.49161 | -64.72164 | 14158 ft | 159 kts | 350° |
| 2026-05-03 20:20 | -21.48066 | -64.72363 | 14248 ft | 158 kts | 349° |
| 2026-05-03 20:20 | -21.46995 | -64.72575 | 14436 ft | 149 kts | 348° |
| 2026-05-03 20:20 | -21.46078 | -64.72719 | 14786 ft | 134 kts | 353° |
| 2026-05-03 20:21 | -21.45087 | -64.72821 | 14780 ft | 144 kts | 347° |
| 2026-05-03 20:21 | -21.44113 | -64.73016 | 14989 ft | 136 kts | 342° |
| 2026-05-03 20:21 | -21.43124 | -64.73208 | 14697 ft | 167 kts | 350° |
| 2026-05-03 20:21 | -21.41894 | -64.73457 | 14367 ft | 184 kts | 351° |
| 2026-05-03 20:22 | -21.40671 | -64.73616 | 14507 ft | 172 kts | 351° |
| 2026-05-03 20:22 | -21.39513 | -64.73782 | 14619 ft | 166 kts | 348° |
| 2026-05-03 20:22 | -21.38355 | -64.73976 | 14548 ft | 172 kts | 352° |
| 2026-05-03 20:22 | -21.37151 | -64.74138 | 14471 ft | 175 kts | 348° |
| 2026-05-03 20:23 | -21.35964 | -64.74345 | 14539 ft | 171 kts | 353° |
| 2026-05-03 20:23 | -21.34793 | -64.74506 | 14528 ft | 172 kts | 352° |
| 2026-05-03 20:23 | -21.33616 | -64.74711 | 14577 ft | 169 kts | 351° |
| 2026-05-03 20:23 | -21.32504 | -64.74919 | 14686 ft | 165 kts | 352° |
| 2026-05-03 20:24 | -21.31340 | -64.75069 | 14583 ft | 173 kts | 353° |
| 2026-05-03 20:24 | -21.30148 | -64.75266 | 14524 ft | 176 kts | 351° |
| 2026-05-03 20:24 | -21.28930 | -64.75422 | 14485 ft | 176 kts | 354° |
| 2026-05-03 20:24 | -21.27719 | -64.75592 | 14492 ft | 175 kts | 351° |
| 2026-05-03 20:25 | -21.26503 | -64.75774 | 14436 ft | 177 kts | 353° |
| 2026-05-03 20:25 | -21.25322 | -64.75965 | 14557 ft | 168 kts | 349° |
| 2026-05-03 20:25 | -21.24214 | -64.76214 | 14658 ft | 165 kts | 348° |
| 2026-05-03 20:25 | -21.23042 | -64.76427 | 14492 ft | 176 kts | 351° |
| 2026-05-03 20:26 | -21.21843 | -64.76635 | 14530 ft | 172 kts | 348° |
| 2026-05-03 20:26 | -21.20644 | -64.76863 | 14503 ft | 174 kts | 351° |
| 2026-05-03 20:26 | -21.19451 | -64.77057 | 14500 ft | 173 kts | 352° |
| 2026-05-03 20:26 | -21.18260 | -64.77232 | 14518 ft | 172 kts | 350° |
| 2026-05-03 20:27 | -21.17080 | -64.77490 | 14493 ft | 173 kts | 346° |
| 2026-05-03 20:27 | -21.15923 | -64.77738 | 14530 ft | 171 kts | 351° |
| 2026-05-03 20:27 | -21.14743 | -64.77953 | 14506 ft | 173 kts | 351° |
| 2026-05-03 20:27 | -21.13553 | -64.78164 | 14467 ft | 175 kts | 348° |
| 2026-05-03 20:28 | -21.12364 | -64.78453 | 14418 ft | 176 kts | 346° |
| 2026-05-03 20:28 | -21.11172 | -64.78683 | 14434 ft | 174 kts | 354° |
| 2026-05-03 20:28 | -21.09981 | -64.78863 | 14448 ft | 172 kts | 349° |
| 2026-05-03 20:28 | -21.08855 | -64.79076 | 14771 ft | 152 kts | 352° |
| 2026-05-03 20:29 | -21.07783 | -64.79205 | 14714 ft | 163 kts | 349° |
| 2026-05-03 20:29 | -21.06639 | -64.79512 | 14597 ft | 172 kts | 345° |
| 2026-05-03 20:29 | -21.05483 | -64.79807 | 14615 ft | 171 kts | 349° |
| 2026-05-03 20:29 | -21.04311 | -64.80015 | 14625 ft | 171 kts | 350° |
| 2026-05-03 20:30 | -21.03124 | -64.80182 | 14536 ft | 177 kts | 354° |
| 2026-05-03 20:30 | -21.01893 | -64.80341 | 14430 ft | 180 kts | 351° |
| 2026-05-03 20:30 | -21.00672 | -64.80507 | 14500 ft | 174 kts | 356° |
| 2026-05-03 20:30 | -20.99470 | -64.80626 | 14459 ft | 176 kts | 354° |
| 2026-05-03 20:31 | -20.98246 | -64.80788 | 14414 ft | 177 kts | 350° |
| 2026-05-03 20:31 | -20.97041 | -64.80962 | 14452 ft | 173 kts | 354° |
| 2026-05-03 20:31 | -20.95843 | -64.81111 | 14420 ft | 175 kts | 351° |
| 2026-05-03 20:31 | -20.94633 | -64.81290 | 14459 ft | 171 kts | 355° |
| 2026-05-03 20:32 | -20.93475 | -64.81446 | 14486 ft | 171 kts | 348° |
| 2026-05-03 20:32 | -20.92282 | -64.81717 | 14401 ft | 175 kts | 348° |
| 2026-05-03 20:32 | -20.91098 | -64.81918 | 14398 ft | 175 kts | 354° |
| 2026-05-03 20:32 | -20.89885 | -64.82104 | 14348 ft | 177 kts | 350° |
| 2026-05-03 20:33 | -20.88667 | -64.82331 | 14333 ft | 176 kts | 349° |
| 2026-05-03 20:33 | -20.87480 | -64.82577 | 14328 ft | 175 kts | 351° |
| 2026-05-03 20:33 | -20.86260 | -64.82728 | 14292 ft | 176 kts | 354° |
| 2026-05-03 20:33 | -20.85065 | -64.82953 | 14294 ft | 175 kts | 347° |
| 2026-05-03 20:34 | -20.83924 | -64.83137 | 14573 ft | 157 kts | 356° |
| 2026-05-03 20:34 | -20.82832 | -64.83265 | 14613 ft | 160 kts | 351° |
| 2026-05-03 20:34 | -20.81723 | -64.83426 | 14631 ft | 163 kts | 349° |
| 2026-05-03 20:34 | -20.80642 | -64.83684 | 14769 ft | 157 kts | 348° |
| 2026-05-03 20:35 | -20.79551 | -64.83831 | 14809 ft | 160 kts | 351° |
| 2026-05-03 20:35 | -20.78414 | -64.84018 | 14736 ft | 168 kts | 349° |
| 2026-05-03 20:35 | -20.77249 | -64.84242 | 14680 ft | 172 kts | 348° |
| 2026-05-03 20:35 | -20.76083 | -64.84412 | 14792 ft | 165 kts | 359° |
| 2026-05-03 20:36 | -20.75014 | -64.84514 | 15068 ft | 151 kts | 353° |
| 2026-05-03 20:36 | -20.73913 | -64.84736 | 14779 ft | 176 kts | 347° |
| 2026-05-03 20:36 | -20.72667 | -64.85033 | 14551 ft | 184 kts | 351° |
| 2026-05-03 20:36 | -20.71429 | -64.85278 | 14572 ft | 179 kts | 349° |
| 2026-05-03 20:37 | -20.70228 | -64.85516 | 14613 ft | 175 kts | 347° |
| 2026-05-03 20:37 | -20.69045 | -64.85838 | 14543 ft | 178 kts | 351° |
| 2026-05-03 20:37 | -20.67827 | -64.85987 | 14559 ft | 174 kts | 348° |
| 2026-05-03 20:37 | -20.66635 | -64.86255 | 14520 ft | 176 kts | 346° |
| 2026-05-03 20:38 | -20.65433 | -64.86503 | 14532 ft | 174 kts | 350° |
| 2026-05-03 20:38 | -20.64263 | -64.86747 | 14550 ft | 173 kts | 351° |
| 2026-05-03 20:38 | -20.63067 | -64.86936 | 14529 ft | 174 kts | 350° |
| 2026-05-03 20:38 | -20.61895 | -64.87195 | 14508 ft | 175 kts | 346° |
| 2026-05-03 20:39 | -20.60717 | -64.87554 | 14435 ft | 178 kts | 338° |
| 2026-05-03 20:39 | -20.59601 | -64.88175 | 14354 ft | 180 kts | 329° |
| 2026-05-03 20:39 | -20.58557 | -64.88876 | 14380 ft | 176 kts | 326° |
| 2026-05-03 20:39 | -20.57417 | -64.89279 | 14272 ft | 179 kts | 359° |
| 2026-05-03 20:40 | -20.56194 | -64.89323 | 14282 ft | 177 kts | 352° |
| 2026-05-03 20:40 | -20.54977 | -64.89510 | 14252 ft | 177 kts | 350° |
| 2026-05-03 20:40 | -20.53774 | -64.89748 | 14269 ft | 174 kts | 349° |
| 2026-05-03 20:40 | -20.52594 | -64.89906 | 14448 ft | 163 kts | 355° |
| 2026-05-03 20:41 | -20.51497 | -64.89963 | 14630 ft | 155 kts | 356° |
| 2026-05-03 20:41 | -20.50442 | -64.90034 | 14807 ft | 150 kts | 355° |
| 2026-05-03 20:41 | -20.49378 | -64.90160 | 14730 ft | 162 kts | 349° |
| 2026-05-03 20:41 | -20.48194 | -64.90373 | 14448 ft | 180 kts | 352° |
| 2026-05-03 20:42 | -20.46951 | -64.90522 | 14445 ft | 177 kts | 355° |
| 2026-05-03 20:42 | -20.45764 | -64.90704 | 14491 ft | 174 kts | 345° |
| 2026-05-03 20:42 | -20.44603 | -64.91016 | 14558 ft | 169 kts | 351° |
| 2026-05-03 20:42 | -20.43449 | -64.91202 | 14568 ft | 170 kts | 348° |
| 2026-05-03 20:43 | -20.42296 | -64.91415 | 14665 ft | 165 kts | 352° |
| 2026-05-03 20:43 | -20.41154 | -64.91654 | 14626 ft | 170 kts | 345° |
| 2026-05-03 20:43 | -20.40043 | -64.92062 | 14701 ft | 165 kts | 340° |
| 2026-05-03 20:43 | -20.38947 | -64.92355 | 14812 ft | 162 kts | 347° |
| 2026-05-03 20:44 | -20.37825 | -64.92561 | 14785 ft | 166 kts | 351° |
| 2026-05-03 20:44 | -20.36671 | -64.92770 | 14786 ft | 168 kts | 348° |
| 2026-05-03 20:44 | -20.35487 | -64.92999 | 14568 ft | 181 kts | 345° |
| 2026-05-03 20:44 | -20.34277 | -64.93335 | 14597 ft | 176 kts | 349° |
| 2026-05-03 20:45 | -20.33074 | -64.93478 | 14575 ft | 176 kts | 357° |
| 2026-05-03 20:45 | -20.31842 | -64.93489 | 14568 ft | 175 kts | 360° |
| 2026-05-03 20:45 | -20.30624 | -64.93437 | 14507 ft | 178 kts | 9° |
| 2026-05-03 20:45 | -20.29457 | -64.93042 | 14536 ft | 173 kts | 17° |
| 2026-05-03 20:46 | -20.28312 | -64.92790 | 14626 ft | 168 kts | 6° |
| 2026-05-03 20:46 | -20.27110 | -64.92721 | 14528 ft | 175 kts | 1° |
| 2026-05-03 20:46 | -20.25885 | -64.92786 | 14433 ft | 179 kts | 348° |
| 2026-05-03 20:46 | -20.24717 | -64.93220 | 14433 ft | 176 kts | 336° |
| 2026-05-03 20:47 | -20.23669 | -64.93861 | 14479 ft | 172 kts | 327° |
| 2026-05-03 20:47 | -20.22707 | -64.94612 | 14484 ft | 173 kts | 320° |
| 2026-05-03 20:47 | -20.21640 | -64.95132 | 14513 ft | 171 kts | 346° |
| 2026-05-03 20:47 | -20.20477 | -64.95436 | 14446 ft | 175 kts | 346° |
| 2026-05-03 20:48 | -20.19286 | -64.95718 | 14400 ft | 177 kts | 349° |
| 2026-05-03 20:48 | -20.18050 | -64.95923 | 14316 ft | 180 kts | 350° |
| 2026-05-03 20:48 | -20.16829 | -64.96109 | 14366 ft | 175 kts | 355° |
| 2026-05-03 20:48 | -20.15617 | -64.96242 | 14344 ft | 175 kts | 352° |
| 2026-05-03 20:49 | -20.14407 | -64.96353 | 14338 ft | 174 kts | 357° |
| 2026-05-03 20:49 | -20.13319 | -64.96581 | 14675 ft | 154 kts | 344° |
| 2026-05-03 20:49 | -20.12262 | -64.96838 | 14664 ft | 158 kts | 344° |
| 2026-05-03 20:49 | -20.11353 | -64.97118 | 15000 ft | 133 kts | 346° |
| 2026-05-03 20:50 | -20.10330 | -64.97362 | 14644 ft | 166 kts | 345° |
| 2026-05-03 20:50 | -20.09183 | -64.97631 | 14569 ft | 173 kts | 349° |
| 2026-05-03 20:50 | -20.07984 | -64.97749 | 14524 ft | 174 kts | 352° |
| 2026-05-03 20:50 | -20.06781 | -64.97913 | 14503 ft | 175 kts | 352° |
| 2026-05-03 20:51 | -20.05584 | -64.98117 | 14490 ft | 175 kts | 349° |
| 2026-05-03 20:51 | -20.04377 | -64.98292 | 14527 ft | 171 kts | 357° |
| 2026-05-03 20:51 | -20.03216 | -64.98357 | 14579 ft | 169 kts | 359° |
| 2026-05-03 20:51 | -20.02044 | -64.98404 | 14631 ft | 166 kts | 351° |
| 2026-05-03 20:52 | -20.00889 | -64.98576 | 14590 ft | 171 kts | 355° |
| 2026-05-03 20:52 | -19.99723 | -64.98735 | 14627 ft | 170 kts | 349° |
| 2026-05-03 20:52 | -19.98561 | -64.98944 | 14695 ft | 166 kts | 355° |
| 2026-05-03 20:52 | -19.97396 | -64.99053 | 14617 ft | 173 kts | 351° |
| 2026-05-03 20:53 | -19.96212 | -64.99320 | 14559 ft | 176 kts | 350° |
| 2026-05-03 20:53 | -19.95005 | -64.99471 | 14559 ft | 175 kts | 358° |
| 2026-05-03 20:53 | -19.93796 | -64.99558 | 14551 ft | 174 kts | 352° |
| 2026-05-03 20:53 | -19.92616 | -64.99828 | 14544 ft | 171 kts | 337° |
| 2026-05-03 20:54 | -19.91484 | -64.99973 | 14744 ft | 158 kts | 348° |
| 2026-05-03 20:54 | -19.89171 | -65.00324 | 14510 ft | 174 kts | 353° |
| 2026-05-03 20:54 | -19.87958 | -65.00523 | 14444 ft | 176 kts | 350° |
| 2026-05-03 20:55 | -19.86763 | -65.00716 | 14512 ft | 171 kts | 351° |
| 2026-05-03 20:55 | -19.85583 | -65.00901 | 14445 ft | 176 kts | 352° |
| 2026-05-03 20:55 | -19.84417 | -65.01068 | 14554 ft | 170 kts | 352° |
| 2026-05-03 20:55 | -19.83213 | -65.01206 | 14473 ft | 175 kts | 356° |
| 2026-05-03 20:56 | -19.81989 | -65.01180 | 14408 ft | 178 kts | 6° |
| 2026-05-03 20:56 | -19.80796 | -65.00898 | 14392 ft | 177 kts | 15° |
| 2026-05-03 20:56 | -19.79586 | -65.00700 | 14367 ft | 177 kts | 8° |
| 2026-05-03 20:56 | -19.78358 | -65.00487 | 14301 ft | 179 kts | 9° |
| 2026-05-03 20:57 | -19.77148 | -65.00303 | 14361 ft | 174 kts | 7° |
| 2026-05-03 20:57 | -19.75943 | -65.00241 | 14334 ft | 175 kts | 359° |
| 2026-05-03 20:57 | -19.74775 | -65.00391 | 14473 ft | 166 kts | 346° |
| 2026-05-03 20:57 | -19.73664 | -65.00716 | 14488 ft | 168 kts | 340° |
| 2026-05-03 20:58 | -19.72584 | -65.01256 | 14388 ft | 175 kts | 331° |
| 2026-05-03 20:58 | -19.71544 | -65.01902 | 14412 ft | 173 kts | 327° |
| 2026-05-03 20:58 | -19.70593 | -65.02691 | 14437 ft | 171 kts | 321° |
| 2026-05-03 20:58 | -19.69714 | -65.03549 | 14366 ft | 176 kts | 313° |
| 2026-05-03 20:59 | -19.68884 | -65.04509 | 14393 ft | 173 kts | 315° |
| 2026-05-03 20:59 | -19.68014 | -65.05388 | 14361 ft | 174 kts | 319° |
| 2026-05-03 20:59 | -19.67092 | -65.06210 | 14369 ft | 173 kts | 321° |
| 2026-05-03 20:59 | -19.66148 | -65.07008 | 14345 ft | 175 kts | 318° |
| 2026-05-03 21:00 | -19.65248 | -65.07796 | 14621 ft | 156 kts | 325° |
| 2026-05-03 21:00 | -19.64657 | -65.08259 | 14631 ft | 159 kts | 322° |
| 2026-05-03 21:00 | -19.63531 | -65.09189 | 14892 ft | 150 kts | 324° |
| 2026-05-03 21:00 | -19.62603 | -65.09721 | 14905 ft | 156 kts | 341° |
| 2026-05-03 21:01 | -19.61535 | -65.10099 | 14735 ft | 173 kts | 341° |
| 2026-05-03 21:01 | -19.60381 | -65.10537 | 14632 ft | 177 kts | 338° |
| 2026-05-03 21:01 | -19.59235 | -65.10926 | 14687 ft | 172 kts | 343° |
| 2026-05-03 21:01 | -19.58097 | -65.11317 | 14718 ft | 171 kts | 340° |
| 2026-05-03 21:02 | -19.56985 | -65.11649 | 14836 ft | 164 kts | 348° |
| 2026-05-03 21:02 | -19.55848 | -65.11935 | 14802 ft | 169 kts | 346° |
| 2026-05-03 21:02 | -19.54686 | -65.12163 | 14754 ft | 173 kts | 352° |
| 2026-05-03 21:02 | -19.53475 | -65.12321 | 14673 ft | 177 kts | 353° |
| 2026-05-03 21:03 | -19.52264 | -65.12435 | 14712 ft | 173 kts | 356° |
| 2026-05-03 21:03 | -19.51070 | -65.12505 | 14720 ft | 173 kts | 356° |
| 2026-05-03 21:03 | -19.49860 | -65.12544 | 14769 ft | 169 kts | 0° |
| 2026-05-03 21:03 | -19.48690 | -65.12537 | 14790 ft | 169 kts | 356° |
| 2026-05-03 21:04 | -19.47513 | -65.12573 | 14759 ft | 173 kts | 0° |
| 2026-05-03 21:04 | -19.46306 | -65.12575 | 14697 ft | 176 kts | 360° |
| 2026-05-03 21:04 | -19.45077 | -65.12548 | 14664 ft | 176 kts | 3° |
| 2026-05-03 21:04 | -19.43866 | -65.12434 | 14671 ft | 174 kts | 358° |
| 2026-05-03 21:05 | -19.42687 | -65.12595 | 14763 ft | 168 kts | 354° |
| 2026-05-03 21:05 | -19.41511 | -65.12743 | 14760 ft | 170 kts | 354° |
| 2026-05-03 21:05 | -19.40340 | -65.12831 | 14727 ft | 169 kts | 356° |
| 2026-05-03 21:05 | -19.39315 | -65.12888 | 14256 ft | 140 kts | 357° |
| 2026-05-03 21:06 | -19.38376 | -65.12978 | 13741 ft | 131 kts | 355° |
| 2026-05-03 21:06 | -19.37490 | -65.13081 | 13187 ft | 129 kts | 351° |
| 2026-05-03 21:06 | -19.36623 | -65.13174 | 12677 ft | 126 kts | 356° |
| 2026-05-03 21:06 | -19.35776 | -65.13130 | 12269 ft | 115 kts | 7° |
| 2026-05-03 21:07 | -19.35002 | -65.13039 | 11890 ft | 108 kts | 5° |
| 2026-05-03 21:07 | -19.34280 | -65.12869 | 11432 ft | 115 kts | 17° |
| 2026-05-03 21:07 | -19.33457 | -65.12696 | 10664 ft | 134 kts | 6° |
| 2026-05-03 21:07 | -19.32562 | -65.12630 | 10164 ft | 114 kts | 4° |
| 2026-05-03 21:08 | -19.31862 | -65.12560 | 9782 ft | 95 kts | 7° |
| 2026-05-03 21:08 | -19.31360 | -65.12497 | 9752 ft | 44 kts | 22° |
| 2026-05-03 21:08 | -19.31249 | -65.12452 | 9778 ft | 0 kts | 22° |